Jump to content


SOUTHWEST AIRLINES FLIGHT WN2311 FLOWN ON 07-29-2017 BY CAPTAIN TYLER HANUS

Pilot StatsCaptain Tyler Hanus (LDP525) • 239.4 total hours • 51 total flights [View Logbook]
FLIGHT DETAILS
StatusReceived and approved on 2017-07-29 at 13:07:54
Origin AirportSan Diego Intl (KSAN) • San Diego, California, United States (15 feet MSL)
Filed Flight PlanFLIGHT PLANNER OFFLINE
Destination AirportMcCarran Intl (KLAS) • Las Vegas, Nevada, United States (2,180 feet MSL)
Alternate AirportHenderson Executive (KHND) • Las Vegas, Nevada, United States (2,491 feet MSL)
AirlineSouthwest Airlines
AircraftBoeing 737-700 | Winglets (73W / B737-700)
FS Aircraft UsedBoeing 737-7H4NG Southwest Airlines N708SW Goldstar Textures
Cruising AltitudeFL290
Distance Flown225 nautical miles
Passengers Onboard87 passengers (63.97% full)
DEPARTURE DETAILS
Time Out09:08:28
Taxi Data115,211 lbs total with 12,291 lbs of fuel onboard
Takeoff Data09:21:06 (13 minutes after leaving gate/ramp) • 114,814 lbs total • 6° pitch at 132 knots
Departure METARKSAN 291451Z 00000KT 10SM BKN013 21/18 A2999 RMK AO2 SLP156 T02110178 53010
ARRIVAL DETAILS
Landing Data10:10:48 • 109,212 lbs total • 4° pitch doing 110 knots at a rate of -46.91 feet/minute with 6,104 lbs of fuel onboard
Time In10:16:01 (5 minutes after landing)
Ramp Weight109,024 lbs total
Total Fuel Used6,187 lbs
Total Block Time01:06:25 (1.1 hours) while 18 minutes were spent on the ground
Arrival METARKLAS 291656Z VRB03KT 10SM FEW110 FEW140 SCT220 34/13 A3001 RMK AO2 SLP129 T03390133
MISCELLANEOUS DETAILS
LiveDISPATCH Version4.8.3.1
FS Version
FSUIPC Version4.96
OS VersionWindows 7 32-bit
Screen Resolution1360 x 768
Pilot's CommentsNo Comments Reported
FLIGHT MAP